sensor_id;sensor_type;location;lat;lon;timestamp;temperature;humidity
16485;DHT22;8353;47.856;12.344;2022-12-24T00:01:07;13.70;99.90
16485;DHT22;8353;47.856;12.344;2022-12-24T00:03:39;13.70;99.90
16485;DHT22;8353;47.856;12.344;2022-12-24T00:06:16;13.70;99.90
16485;DHT22;8353;47.856;12.344;2022-12-24T00:08:47;13.80;99.90
16485;DHT22;8353;47.856;12.344;2022-12-24T00:11:19;13.80;99.90
16485;DHT22;8353;47.856;12.344;2022-12-24T00:13:50;13.70;99.90
16485;DHT22;8353;47.856;12.344;2022-12-24T00:16:23;13.70;99.90
16485;DHT22;8353;47.856;12.344;2022-12-24T00:18:55;13.50;99.90
16485;DHT22;8353;47.856;12.344;2022-12-24T00:21:25;13.50;99.90
16485;DHT22;8353;47.856;12.344;2022-12-24T00:23:55;13.60;99.90
16485;DHT22;8353;47.856;12.344;2022-12-24T00:26:25;13.60;99.90
16485;DHT22;8353;47.856;12.344;2022-12-24T00:28:56;13.60;99.90
16485;DHT22;8353;47.856;12.344;2022-12-24T00:31:26;13.70;99.90
16485;DHT22;8353;47.856;12.344;2022-12-24T00:33:58;13.70;99.90
16485;DHT22;8353;47.856;12.344;2022-12-24T00:36:29;13.70;99.90
16485;DHT22;8353;47.856;12.344;2022-12-24T00:39:00;13.70;99.90
16485;DHT22;8353;47.856;12.344;2022-12-24T00:41:30;13.70;99.90
16485;DHT22;8353;47.856;12.344;2022-12-24T00:44:03;13.60;99.90
16485;DHT22;8353;47.856;12.344;2022-12-24T00:46:35;13.70;99.90
16485;DHT22;8353;47.856;12.344;2022-12-24T00:49:08;13.70;99.90
16485;DHT22;8353;47.856;12.344;2022-12-24T00:51:40;13.60;99.90
16485;DHT22;8353;47.856;12.344;2022-12-24T00:54:11;13.60;99.90
16485;DHT22;8353;47.856;12.344;2022-12-24T00:56:42;13.50;99.90
16485;DHT22;8353;47.856;12.344;2022-12-24T00:59:12;13.50;99.90
16485;DHT22;8353;47.856;12.344;2022-12-24T01:01:43;13.50;99.90
16485;DHT22;8353;47.856;12.344;2022-12-24T01:04:14;13.50;99.90
16485;DHT22;8353;47.856;12.344;2022-12-24T01:07:03;13.50;99.90
16485;DHT22;8353;47.856;12.344;2022-12-24T01:09:33;13.40;99.90
16485;DHT22;8353;47.856;12.344;2022-12-24T01:12:04;13.50;99.90
16485;DHT22;8353;47.856;12.344;2022-12-24T01:14:35;13.40;99.90
16485;DHT22;8353;47.856;12.344;2022-12-24T01:17:07;13.40;99.90
16485;DHT22;8353;47.856;12.344;2022-12-24T01:19:38;13.40;99.90
16485;DHT22;8353;47.856;12.344;2022-12-24T01:22:09;13.40;99.90
16485;DHT22;8353;47.856;12.344;2022-12-24T01:24:40;13.20;99.90
16485;DHT22;8353;47.856;12.344;2022-12-24T01:27:11;13.20;99.90
16485;DHT22;8353;47.856;12.344;2022-12-24T01:29:42;13.10;99.90
16485;DHT22;8353;47.856;12.344;2022-12-24T01:32:13;13.10;99.90
16485;DHT22;8353;47.856;12.344;2022-12-24T01:34:45;13.20;99.90
16485;DHT22;8353;47.856;12.344;2022-12-24T01:37:17;13.20;99.90
16485;DHT22;8353;47.856;12.344;2022-12-24T01:39:48;13.20;99.90
16485;DHT22;8353;47.856;12.344;2022-12-24T01:42:19;13.20;99.90
16485;DHT22;8353;47.856;12.344;2022-12-24T01:45:44;13.20;99.90
16485;DHT22;8353;47.856;12.344;2022-12-24T01:48:24;13.20;99.90
16485;DHT22;8353;47.856;12.344;2022-12-24T01:51:03;13.20;99.90
16485;DHT22;8353;47.856;12.344;2022-12-24T01:53:36;13.20;99.90
16485;DHT22;8353;47.856;12.344;2022-12-24T01:56:09;13.20;99.90
16485;DHT22;8353;47.856;12.344;2022-12-24T01:58:43;13.20;99.90
16485;DHT22;8353;47.856;12.344;2022-12-24T02:01:18;13.10;99.90
16485;DHT22;8353;47.856;12.344;2022-12-24T02:03:48;13.20;99.90
16485;DHT22;8353;47.856;12.344;2022-12-24T02:06:21;13.20;99.90
16485;DHT22;8353;47.856;12.344;2022-12-24T02:09:07;13.20;99.90
16485;DHT22;8353;47.856;12.344;2022-12-24T02:11:38;13.10;99.90
16485;DHT22;8353;47.856;12.344;2022-12-24T02:14:12;13.20;99.90
16485;DHT22;8353;47.856;12.344;2022-12-24T02:19:35;13.10;99.90
16485;DHT22;8353;47.856;12.344;2022-12-24T02:22:15;13.20;99.90
16485;DHT22;8353;47.856;12.344;2022-12-24T02:25:05;13.10;99.90
16485;DHT22;8353;47.856;12.344;2022-12-24T02:27:46;13.20;99.90
16485;DHT22;8353;47.856;12.344;2022-12-24T02:30:22;13.20;99.90
16485;DHT22;8353;47.856;12.344;2022-12-24T02:33:06;13.20;99.90
16485;DHT22;8353;47.856;12.344;2022-12-24T02:35:45;13.20;99.90
16485;DHT22;8353;47.856;12.344;2022-12-24T02:38:23;13.10;99.90
16485;DHT22;8353;47.856;12.344;2022-12-24T02:40:57;13.00;99.90
16485;DHT22;8353;47.856;12.344;2022-12-24T02:43:34;13.00;99.90
16485;DHT22;8353;47.856;12.344;2022-12-24T02:46:08;13.00;99.90
16485;DHT22;8353;47.856;12.344;2022-12-24T02:48:42;13.00;99.90
16485;DHT22;8353;47.856;12.344;2022-12-24T02:51:13;13.00;99.90
16485;DHT22;8353;47.856;12.344;2022-12-24T02:53:44;13.00;99.90
16485;DHT22;8353;47.856;12.344;2022-12-24T02:56:30;13.00;99.90
16485;DHT22;8353;47.856;12.344;2022-12-24T02:59:23;12.90;99.90
16485;DHT22;8353;47.856;12.344;2022-12-24T03:02:05;12.90;99.90
16485;DHT22;8353;47.856;12.344;2022-12-24T03:04:46;12.90;99.90
16485;DHT22;8353;47.856;12.344;2022-12-24T03:07:23;12.80;99.90
16485;DHT22;8353;47.856;12.344;2022-12-24T03:10:05;12.80;99.90
16485;DHT22;8353;47.856;12.344;2022-12-24T03:12:42;12.80;99.90
16485;DHT22;8353;47.856;12.344;2022-12-24T03:15:15;12.90;99.90
16485;DHT22;8353;47.856;12.344;2022-12-24T03:17:49;12.80;99.90
16485;DHT22;8353;47.856;12.344;2022-12-24T03:20:24;12.80;99.90
16485;DHT22;8353;47.856;12.344;2022-12-24T03:22:56;12.80;99.90
16485;DHT22;8353;47.856;12.344;2022-12-24T03:25:27;12.70;99.90
16485;DHT22;8353;47.856;12.344;2022-12-24T03:28:00;12.70;99.90
16485;DHT22;8353;47.856;12.344;2022-12-24T03:30:32;12.70;99.90
16485;DHT22;8353;47.856;12.344;2022-12-24T03:33:04;12.70;99.90
16485;DHT22;8353;47.856;12.344;2022-12-24T03:35:34;12.70;99.90
16485;DHT22;8353;47.856;12.344;2022-12-24T03:38:05;12.70;99.90
16485;DHT22;8353;47.856;12.344;2022-12-24T03:40:35;12.60;99.90
16485;DHT22;8353;47.856;12.344;2022-12-24T03:43:06;12.70;99.90
16485;DHT22;8353;47.856;12.344;2022-12-24T03:45:36;12.70;99.90
16485;DHT22;8353;47.856;12.344;2022-12-24T03:48:08;12.70;99.90
16485;DHT22;8353;47.856;12.344;2022-12-24T03:50:39;12.70;99.90
16485;DHT22;8353;47.856;12.344;2022-12-24T03:53:09;12.70;99.90
16485;DHT22;8353;47.856;12.344;2022-12-24T03:55:40;12.60;99.90
16485;DHT22;8353;47.856;12.344;2022-12-24T03:58:10;12.70;99.90
16485;DHT22;8353;47.856;12.344;2022-12-24T04:00:41;12.70;99.90
16485;DHT22;8353;47.856;12.344;2022-12-24T04:03:12;12.70;99.90
16485;DHT22;8353;47.856;12.344;2022-12-24T04:05:43;12.70;99.90
16485;DHT22;8353;47.856;12.344;2022-12-24T04:08:13;12.60;99.90
16485;DHT22;8353;47.856;12.344;2022-12-24T04:10:43;12.70;99.90
16485;DHT22;8353;47.856;12.344;2022-12-24T04:13:14;12.70;99.90
16485;DHT22;8353;47.856;12.344;2022-12-24T04:15:44;12.50;99.90
16485;DHT22;8353;47.856;12.344;2022-12-24T04:18:16;12.60;99.90
16485;DHT22;8353;47.856;12.344;2022-12-24T04:20:47;12.50;99.90
16485;DHT22;8353;47.856;12.344;2022-12-24T04:23:17;12.50;99.90
16485;DHT22;8353;47.856;12.344;2022-12-24T04:25:47;12.50;99.90
16485;DHT22;8353;47.856;12.344;2022-12-24T04:28:18;12.50;99.90
16485;DHT22;8353;47.856;12.344;2022-12-24T04:30:48;12.40;99.90
16485;DHT22;8353;47.856;12.344;2022-12-24T04:33:20;12.40;99.90
16485;DHT22;8353;47.856;12.344;2022-12-24T04:35:50;12.40;99.90
16485;DHT22;8353;47.856;12.344;2022-12-24T04:38:21;12.40;99.90
16485;DHT22;8353;47.856;12.344;2022-12-24T04:40:57;12.40;99.90
16485;DHT22;8353;47.856;12.344;2022-12-24T04:43:29;12.40;99.90
16485;DHT22;8353;47.856;12.344;2022-12-24T04:46:04;12.30;99.90
16485;DHT22;8353;47.856;12.344;2022-12-24T04:48:37;12.20;99.90
16485;DHT22;8353;47.856;12.344;2022-12-24T04:51:08;12.20;99.90
16485;DHT22;8353;47.856;12.344;2022-12-24T04:53:39;12.30;99.90
16485;DHT22;8353;47.856;12.344;2022-12-24T04:56:12;12.30;99.90
16485;DHT22;8353;47.856;12.344;2022-12-24T04:58:42;12.20;99.90
16485;DHT22;8353;47.856;12.344;2022-12-24T05:01:16;12.20;99.90
16485;DHT22;8353;47.856;12.344;2022-12-24T05:03:48;12.20;99.90
16485;DHT22;8353;47.856;12.344;2022-12-24T05:06:21;12.20;99.90
16485;DHT22;8353;47.856;12.344;2022-12-24T05:08:53;12.20;99.90
16485;DHT22;8353;47.856;12.344;2022-12-24T05:11:24;12.30;99.90
16485;DHT22;8353;47.856;12.344;2022-12-24T05:13:54;12.20;99.90
16485;DHT22;8353;47.856;12.344;2022-12-24T05:16:25;12.20;99.90
16485;DHT22;8353;47.856;12.344;2022-12-24T05:18:57;12.20;99.90
16485;DHT22;8353;47.856;12.344;2022-12-24T05:21:28;12.30;99.90
16485;DHT22;8353;47.856;12.344;2022-12-24T05:23:58;12.20;99.90
16485;DHT22;8353;47.856;12.344;2022-12-24T05:26:48;12.30;99.90
16485;DHT22;8353;47.856;12.344;2022-12-24T05:29:20;12.30;99.90
16485;DHT22;8353;47.856;12.344;2022-12-24T05:31:51;12.30;99.90
16485;DHT22;8353;47.856;12.344;2022-12-24T05:34:22;12.20;99.90
16485;DHT22;8353;47.856;12.344;2022-12-24T05:36:53;12.20;99.90
16485;DHT22;8353;47.856;12.344;2022-12-24T05:39:23;12.20;99.90
16485;DHT22;8353;47.856;12.344;2022-12-24T05:41:54;12.20;99.90
16485;DHT22;8353;47.856;12.344;2022-12-24T05:44:24;12.20;99.90
16485;DHT22;8353;47.856;12.344;2022-12-24T05:46:54;12.20;99.90
16485;DHT22;8353;47.856;12.344;2022-12-24T05:49:26;12.20;99.90
16485;DHT22;8353;47.856;12.344;2022-12-24T05:51:57;12.20;99.90
16485;DHT22;8353;47.856;12.344;2022-12-24T05:54:28;12.20;99.90
16485;DHT22;8353;47.856;12.344;2022-12-24T05:56:58;12.10;99.90
16485;DHT22;8353;47.856;12.344;2022-12-24T05:59:29;12.20;99.90
16485;DHT22;8353;47.856;12.344;2022-12-24T06:01:59;12.20;99.90
16485;DHT22;8353;47.856;12.344;2022-12-24T06:04:31;12.20;99.90
16485;DHT22;8353;47.856;12.344;2022-12-24T06:07:01;12.20;99.90
16485;DHT22;8353;47.856;12.344;2022-12-24T06:09:31;12.20;99.90
16485;DHT22;8353;47.856;12.344;2022-12-24T06:12:01;12.20;99.90
16485;DHT22;8353;47.856;12.344;2022-12-24T06:14:32;12.20;99.90
16485;DHT22;8353;47.856;12.344;2022-12-24T06:17:03;12.20;99.90
16485;DHT22;8353;47.856;12.344;2022-12-24T06:19:35;12.20;99.90
16485;DHT22;8353;47.856;12.344;2022-12-24T06:22:06;12.10;99.90
16485;DHT22;8353;47.856;12.344;2022-12-24T06:24:36;12.10;99.90
16485;DHT22;8353;47.856;12.344;2022-12-24T06:27:06;12.10;99.90
16485;DHT22;8353;47.856;12.344;2022-12-24T06:29:37;12.20;99.90
16485;DHT22;8353;47.856;12.344;2022-12-24T06:32:07;12.10;99.90
16485;DHT22;8353;47.856;12.344;2022-12-24T06:34:39;12.10;99.90
16485;DHT22;8353;47.856;12.344;2022-12-24T06:37:09;12.10;99.90
16485;DHT22;8353;47.856;12.344;2022-12-24T06:39:46;12.10;99.90
16485;DHT22;8353;47.856;12.344;2022-12-24T06:42:16;12.00;99.90
16485;DHT22;8353;47.856;12.344;2022-12-24T06:44:47;12.00;99.90
16485;DHT22;8353;47.856;12.344;2022-12-24T06:47:18;12.00;99.90
16485;DHT22;8353;47.856;12.344;2022-12-24T06:49:49;12.10;99.90
16485;DHT22;8353;47.856;12.344;2022-12-24T06:52:22;12.10;99.90
16485;DHT22;8353;47.856;12.344;2022-12-24T06:54:52;12.10;99.90
16485;DHT22;8353;47.856;12.344;2022-12-24T06:57:23;12.10;99.90
16485;DHT22;8353;47.856;12.344;2022-12-24T06:59:53;12.00;99.90
16485;DHT22;8353;47.856;12.344;2022-12-24T07:02:24;12.00;99.90
16485;DHT22;8353;47.856;12.344;2022-12-24T07:04:56;12.10;99.90
16485;DHT22;8353;47.856;12.344;2022-12-24T07:07:26;12.00;99.90
16485;DHT22;8353;47.856;12.344;2022-12-24T07:09:56;12.00;99.90
16485;DHT22;8353;47.856;12.344;2022-12-24T07:12:27;12.00;99.90
16485;DHT22;8353;47.856;12.344;2022-12-24T07:14:58;11.90;99.90
16485;DHT22;8353;47.856;12.344;2022-12-24T07:17:28;12.00;99.90
16485;DHT22;8353;47.856;12.344;2022-12-24T07:20:00;12.00;99.90
16485;DHT22;8353;47.856;12.344;2022-12-24T07:22:31;12.00;99.90
16485;DHT22;8353;47.856;12.344;2022-12-24T07:25:01;12.00;99.90
16485;DHT22;8353;47.856;12.344;2022-12-24T07:27:32;11.90;99.90
16485;DHT22;8353;47.856;12.344;2022-12-24T07:30:04;11.90;99.90
16485;DHT22;8353;47.856;12.344;2022-12-24T07:32:35;11.90;99.90
16485;DHT22;8353;47.856;12.344;2022-12-24T07:35:08;12.00;99.90
16485;DHT22;8353;47.856;12.344;2022-12-24T07:37:39;11.90;99.90
16485;DHT22;8353;47.856;12.344;2022-12-24T07:40:10;11.90;99.90
16485;DHT22;8353;47.856;12.344;2022-12-24T07:42:41;11.90;99.90
16485;DHT22;8353;47.856;12.344;2022-12-24T07:45:11;12.00;99.90
16485;DHT22;8353;47.856;12.344;2022-12-24T07:47:41;12.00;99.90
16485;DHT22;8353;47.856;12.344;2022-12-24T07:50:14;12.00;99.90
16485;DHT22;8353;47.856;12.344;2022-12-24T07:52:44;12.10;99.90
16485;DHT22;8353;47.856;12.344;2022-12-24T07:55:15;12.10;99.90
16485;DHT22;8353;47.856;12.344;2022-12-24T07:57:46;12.10;99.90
16485;DHT22;8353;47.856;12.344;2022-12-24T08:00:17;12.10;99.90
16485;DHT22;8353;47.856;12.344;2022-12-24T08:02:47;12.10;99.90
16485;DHT22;8353;47.856;12.344;2022-12-24T08:05:19;12.10;99.90
16485;DHT22;8353;47.856;12.344;2022-12-24T08:07:49;12.00;99.90
16485;DHT22;8353;47.856;12.344;2022-12-24T08:10:19;12.10;99.90
16485;DHT22;8353;47.856;12.344;2022-12-24T08:12:49;12.00;99.90
16485;DHT22;8353;47.856;12.344;2022-12-24T08:15:20;12.10;99.90
16485;DHT22;8353;47.856;12.344;2022-12-24T08:17:50;12.10;99.90
16485;DHT22;8353;47.856;12.344;2022-12-24T08:20:23;12.20;99.90
16485;DHT22;8353;47.856;12.344;2022-12-24T08:22:53;12.10;99.90
16485;DHT22;8353;47.856;12.344;2022-12-24T08:25:24;12.10;99.90
16485;DHT22;8353;47.856;12.344;2022-12-24T08:27:55;12.10;99.90
16485;DHT22;8353;47.856;12.344;2022-12-24T08:30:26;12.10;99.90
16485;DHT22;8353;47.856;12.344;2022-12-24T08:32:56;12.00;99.90
16485;DHT22;8353;47.856;12.344;2022-12-24T08:35:28;12.10;99.90
16485;DHT22;8353;47.856;12.344;2022-12-24T08:37:59;12.10;99.90
16485;DHT22;8353;47.856;12.344;2022-12-24T08:40:30;12.10;99.90
16485;DHT22;8353;47.856;12.344;2022-12-24T08:43:01;12.10;99.90
16485;DHT22;8353;47.856;12.344;2022-12-24T08:45:32;12.20;99.90
16485;DHT22;8353;47.856;12.344;2022-12-24T08:48:02;12.20;99.90
16485;DHT22;8353;47.856;12.344;2022-12-24T08:50:37;12.20;99.90
16485;DHT22;8353;47.856;12.344;2022-12-24T08:53:08;12.20;99.90
16485;DHT22;8353;47.856;12.344;2022-12-24T08:55:39;12.20;99.90
16485;DHT22;8353;47.856;12.344;2022-12-24T08:58:10;12.20;99.90
16485;DHT22;8353;47.856;12.344;2022-12-24T09:00:40;12.20;99.90
16485;DHT22;8353;47.856;12.344;2022-12-24T09:03:13;12.30;99.90
16485;DHT22;8353;47.856;12.344;2022-12-24T09:05:45;12.30;99.90
16485;DHT22;8353;47.856;12.344;2022-12-24T09:08:21;12.30;99.90
16485;DHT22;8353;47.856;12.344;2022-12-24T09:10:52;12.30;99.90
16485;DHT22;8353;47.856;12.344;2022-12-24T09:13:22;12.30;99.90
16485;DHT22;8353;47.856;12.344;2022-12-24T09:15:53;12.30;99.90
16485;DHT22;8353;47.856;12.344;2022-12-24T09:18:24;12.30;99.90
16485;DHT22;8353;47.856;12.344;2022-12-24T09:21:00;12.40;99.90
16485;DHT22;8353;47.856;12.344;2022-12-24T09:23:31;12.50;99.90
16485;DHT22;8353;47.856;12.344;2022-12-24T09:26:04;12.40;99.90
16485;DHT22;8353;47.856;12.344;2022-12-24T09:28:35;12.40;99.90
16485;DHT22;8353;47.856;12.344;2022-12-24T09:31:06;12.40;99.90
16485;DHT22;8353;47.856;12.344;2022-12-24T09:33:38;12.60;99.90
16485;DHT22;8353;47.856;12.344;2022-12-24T09:36:10;12.60;99.90
16485;DHT22;8353;47.856;12.344;2022-12-24T09:38:41;12.50;99.90
16485;DHT22;8353;47.856;12.344;2022-12-24T09:41:14;12.70;99.90
16485;DHT22;8353;47.856;12.344;2022-12-24T09:43:47;12.70;99.90
16485;DHT22;8353;47.856;12.344;2022-12-24T09:46:22;12.80;99.90
16485;DHT22;8353;47.856;12.344;2022-12-24T09:48:56;12.90;99.90
16485;DHT22;8353;47.856;12.344;2022-12-24T09:51:32;12.80;99.90
16485;DHT22;8353;47.856;12.344;2022-12-24T09:54:08;12.80;99.90
16485;DHT22;8353;47.856;12.344;2022-12-24T09:56:44;12.80;99.90
16485;DHT22;8353;47.856;12.344;2022-12-24T09:59:17;12.90;99.90
16485;DHT22;8353;47.856;12.344;2022-12-24T10:01:51;12.90;99.90
16485;DHT22;8353;47.856;12.344;2022-12-24T10:04:25;12.80;99.90
16485;DHT22;8353;47.856;12.344;2022-12-24T10:07:04;12.90;99.90
16485;DHT22;8353;47.856;12.344;2022-12-24T10:09:46;12.90;99.90
16485;DHT22;8353;47.856;12.344;2022-12-24T10:12:24;12.90;99.90
16485;DHT22;8353;47.856;12.344;2022-12-24T10:15:01;12.90;99.90
16485;DHT22;8353;47.856;12.344;2022-12-24T10:17:44;13.00;99.90
16485;DHT22;8353;47.856;12.344;2022-12-24T10:20:32;12.90;99.90
16485;DHT22;8353;47.856;12.344;2022-12-24T10:23:14;12.90;99.90
16485;DHT22;8353;47.856;12.344;2022-12-24T10:25:51;12.80;99.90
16485;DHT22;8353;47.856;12.344;2022-12-24T10:28:31;13.00;99.90
16485;DHT22;8353;47.856;12.344;2022-12-24T10:31:05;13.10;99.90
16485;DHT22;8353;47.856;12.344;2022-12-24T10:33:40;13.00;99.90
16485;DHT22;8353;47.856;12.344;2022-12-24T10:36:15;13.00;99.90
16485;DHT22;8353;47.856;12.344;2022-12-24T10:38:48;13.00;99.90
16485;DHT22;8353;47.856;12.344;2022-12-24T10:41:18;13.10;99.90
16485;DHT22;8353;47.856;12.344;2022-12-24T10:43:49;13.10;99.90
16485;DHT22;8353;47.856;12.344;2022-12-24T10:46:22;13.10;99.90
16485;DHT22;8353;47.856;12.344;2022-12-24T10:48:55;13.10;99.90
16485;DHT22;8353;47.856;12.344;2022-12-24T10:51:33;13.20;99.90
16485;DHT22;8353;47.856;12.344;2022-12-24T10:54:14;13.30;99.90
16485;DHT22;8353;47.856;12.344;2022-12-24T10:56:48;13.40;99.90
16485;DHT22;8353;47.856;12.344;2022-12-24T10:59:23;13.40;99.90
16485;DHT22;8353;47.856;12.344;2022-12-24T11:01:54;13.30;99.90
16485;DHT22;8353;47.856;12.344;2022-12-24T11:04:26;13.30;99.90
16485;DHT22;8353;47.856;12.344;2022-12-24T11:06:59;13.30;99.90
16485;DHT22;8353;47.856;12.344;2022-12-24T11:09:38;13.40;99.90
16485;DHT22;8353;47.856;12.344;2022-12-24T11:12:17;13.50;99.90
16485;DHT22;8353;47.856;12.344;2022-12-24T11:14:59;13.50;99.90
16485;DHT22;8353;47.856;12.344;2022-12-24T11:17:30;13.60;99.90
16485;DHT22;8353;47.856;12.344;2022-12-24T11:20:02;13.30;99.90
16485;DHT22;8353;47.856;12.344;2022-12-24T11:22:32;13.40;99.90
16485;DHT22;8353;47.856;12.344;2022-12-24T11:25:06;13.40;99.90
16485;DHT22;8353;47.856;12.344;2022-12-24T11:27:47;13.50;99.90
16485;DHT22;8353;47.856;12.344;2022-12-24T11:30:28;13.30;99.90
16485;DHT22;8353;47.856;12.344;2022-12-24T11:33:15;13.30;99.90
16485;DHT22;8353;47.856;12.344;2022-12-24T11:35:53;13.30;99.90
16485;DHT22;8353;47.856;12.344;2022-12-24T11:38:26;13.40;99.90
16485;DHT22;8353;47.856;12.344;2022-12-24T11:41:04;13.50;99.90
16485;DHT22;8353;47.856;12.344;2022-12-24T11:43:43;13.60;99.90
16485;DHT22;8353;47.856;12.344;2022-12-24T11:46:19;13.50;99.90
16485;DHT22;8353;47.856;12.344;2022-12-24T11:49:05;13.60;99.90
16485;DHT22;8353;47.856;12.344;2022-12-24T11:52:12;13.60;99.90
16485;DHT22;8353;47.856;12.344;2022-12-24T11:54:53;13.50;99.90
16485;DHT22;8353;47.856;12.344;2022-12-24T11:57:46;13.50;99.90
16485;DHT22;8353;47.856;12.344;2022-12-24T12:00:19;13.50;99.90
16485;DHT22;8353;47.856;12.344;2022-12-24T12:02:50;13.40;99.90
16485;DHT22;8353;47.856;12.344;2022-12-24T12:05:24;13.40;99.90
16485;DHT22;8353;47.856;12.344;2022-12-24T12:07:59;13.50;99.90
16485;DHT22;8353;47.856;12.344;2022-12-24T12:10:36;13.40;99.90
16485;DHT22;8353;47.856;12.344;2022-12-24T12:13:12;13.40;99.90
16485;DHT22;8353;47.856;12.344;2022-12-24T12:15:46;13.40;99.90
16485;DHT22;8353;47.856;12.344;2022-12-24T12:18:21;13.40;99.90
16485;DHT22;8353;47.856;12.344;2022-12-24T12:20:55;13.40;99.90
16485;DHT22;8353;47.856;12.344;2022-12-24T12:23:30;13.50;99.90
16485;DHT22;8353;47.856;12.344;2022-12-24T12:26:07;13.40;99.90
16485;DHT22;8353;47.856;12.344;2022-12-24T12:28:45;13.40;99.90
16485;DHT22;8353;47.856;12.344;2022-12-24T12:31:21;13.40;99.90
16485;DHT22;8353;47.856;12.344;2022-12-24T12:33:56;13.30;99.90
16485;DHT22;8353;47.856;12.344;2022-12-24T12:36:32;13.30;99.90
16485;DHT22;8353;47.856;12.344;2022-12-24T12:39:03;13.30;99.90
16485;DHT22;8353;47.856;12.344;2022-12-24T12:41:48;13.30;99.90
16485;DHT22;8353;47.856;12.344;2022-12-24T12:44:41;13.20;99.90
16485;DHT22;8353;47.856;12.344;2022-12-24T12:50:13;13.30;99.90
16485;DHT22;8353;47.856;12.344;2022-12-24T12:52:57;13.40;99.90
16485;DHT22;8353;47.856;12.344;2022-12-24T12:55:38;13.40;99.90
16485;DHT22;8353;47.856;12.344;2022-12-24T12:58:16;13.40;99.90
16485;DHT22;8353;47.856;12.344;2022-12-24T13:00:54;13.40;99.90
16485;DHT22;8353;47.856;12.344;2022-12-24T13:03:49;13.40;99.90
16485;DHT22;8353;47.856;12.344;2022-12-24T13:06:32;13.40;99.90
16485;DHT22;8353;47.856;12.344;2022-12-24T13:12:15;13.30;99.90
16485;DHT22;8353;47.856;12.344;2022-12-24T13:14:57;13.10;99.90
16485;DHT22;8353;47.856;12.344;2022-12-24T13:17:57;13.20;99.90
16485;DHT22;8353;47.856;12.344;2022-12-24T13:20:32;13.10;99.90
16485;DHT22;8353;47.856;12.344;2022-12-24T13:23:11;13.20;99.90
16485;DHT22;8353;47.856;12.344;2022-12-24T13:25:45;13.20;99.90
16485;DHT22;8353;47.856;12.344;2022-12-24T13:28:34;13.30;99.90
16485;DHT22;8353;47.856;12.344;2022-12-24T13:31:25;13.20;99.90
16485;DHT22;8353;47.856;12.344;2022-12-24T13:34:00;13.20;99.90
16485;DHT22;8353;47.856;12.344;2022-12-24T13:37:04;13.30;99.90
16485;DHT22;8353;47.856;12.344;2022-12-24T13:40:01;13.30;99.90
16485;DHT22;8353;47.856;12.344;2022-12-24T13:42:49;13.30;99.90
16485;DHT22;8353;47.856;12.344;2022-12-24T13:45:40;13.40;99.90
16485;DHT22;8353;47.856;12.344;2022-12-24T13:48:27;13.30;99.90
16485;DHT22;8353;47.856;12.344;2022-12-24T13:51:15;13.30;99.90
16485;DHT22;8353;47.856;12.344;2022-12-24T13:53:47;13.30;99.90
16485;DHT22;8353;47.856;12.344;2022-12-24T13:56:30;13.30;99.90
16485;DHT22;8353;47.856;12.344;2022-12-24T13:59:12;13.20;99.90
16485;DHT22;8353;47.856;12.344;2022-12-24T14:01:47;13.20;99.90
16485;DHT22;8353;47.856;12.344;2022-12-24T14:04:23;13.20;99.90
16485;DHT22;8353;47.856;12.344;2022-12-24T14:06:57;13.10;99.90
16485;DHT22;8353;47.856;12.344;2022-12-24T14:09:29;13.10;99.90
16485;DHT22;8353;47.856;12.344;2022-12-24T14:12:31;13.00;99.90
16485;DHT22;8353;47.856;12.344;2022-12-24T14:18:06;12.90;99.90
16485;DHT22;8353;47.856;12.344;2022-12-24T14:20:37;12.90;99.90
16485;DHT22;8353;47.856;12.344;2022-12-24T14:23:22;12.90;99.90
16485;DHT22;8353;47.856;12.344;2022-12-24T14:25:56;12.90;99.90
16485;DHT22;8353;47.856;12.344;2022-12-24T14:28:31;12.80;99.90
16485;DHT22;8353;47.856;12.344;2022-12-24T14:31:04;12.80;99.90
16485;DHT22;8353;47.856;12.344;2022-12-24T14:33:35;12.80;99.90
16485;DHT22;8353;47.856;12.344;2022-12-24T14:36:06;12.90;99.90
16485;DHT22;8353;47.856;12.344;2022-12-24T14:38:39;12.80;99.90
16485;DHT22;8353;47.856;12.344;2022-12-24T14:41:20;12.80;99.90
16485;DHT22;8353;47.856;12.344;2022-12-24T14:43:59;12.80;99.90
16485;DHT22;8353;47.856;12.344;2022-12-24T14:46:35;12.70;99.90
16485;DHT22;8353;47.856;12.344;2022-12-24T14:49:16;12.70;99.90
16485;DHT22;8353;47.856;12.344;2022-12-24T14:51:58;12.70;99.90
16485;DHT22;8353;47.856;12.344;2022-12-24T14:54:36;12.70;99.90
16485;DHT22;8353;47.856;12.344;2022-12-24T14:57:21;12.70;99.90
16485;DHT22;8353;47.856;12.344;2022-12-24T14:59:53;12.70;99.90
16485;DHT22;8353;47.856;12.344;2022-12-24T15:02:42;12.60;99.90
16485;DHT22;8353;47.856;12.344;2022-12-24T15:05:16;12.60;99.90
16485;DHT22;8353;47.856;12.344;2022-12-24T15:07:52;12.50;99.90
16485;DHT22;8353;47.856;12.344;2022-12-24T15:10:33;12.50;99.90
16485;DHT22;8353;47.856;12.344;2022-12-24T15:13:05;12.40;99.90
16485;DHT22;8353;47.856;12.344;2022-12-24T15:15:36;12.40;99.90
16485;DHT22;8353;47.856;12.344;2022-12-24T15:18:14;12.30;99.90
16485;DHT22;8353;47.856;12.344;2022-12-24T15:20:48;12.20;99.90
16485;DHT22;8353;47.856;12.344;2022-12-24T15:23:24;12.20;99.90
16485;DHT22;8353;47.856;12.344;2022-12-24T15:26:10;12.10;99.90
16485;DHT22;8353;47.856;12.344;2022-12-24T15:28:44;12.10;99.90
16485;DHT22;8353;47.856;12.344;2022-12-24T15:31:16;12.00;99.90
16485;DHT22;8353;47.856;12.344;2022-12-24T15:33:49;11.90;99.90
16485;DHT22;8353;47.856;12.344;2022-12-24T15:36:26;11.90;99.90
16485;DHT22;8353;47.856;12.344;2022-12-24T15:39:00;11.80;99.90
16485;DHT22;8353;47.856;12.344;2022-12-24T15:41:38;11.80;99.90
16485;DHT22;8353;47.856;12.344;2022-12-24T15:44:32;11.80;99.90
16485;DHT22;8353;47.856;12.344;2022-12-24T15:47:05;11.60;99.90
16485;DHT22;8353;47.856;12.344;2022-12-24T15:49:36;11.60;99.90
16485;DHT22;8353;47.856;12.344;2022-12-24T15:52:08;11.50;99.90
16485;DHT22;8353;47.856;12.344;2022-12-24T15:54:43;11.40;99.90
16485;DHT22;8353;47.856;12.344;2022-12-24T15:57:22;11.50;99.90
16485;DHT22;8353;47.856;12.344;2022-12-24T15:59:54;11.50;99.90
16485;DHT22;8353;47.856;12.344;2022-12-24T16:02:34;11.60;99.90
16485;DHT22;8353;47.856;12.344;2022-12-24T16:05:26;11.40;99.90
16485;DHT22;8353;47.856;12.344;2022-12-24T16:11:09;11.40;99.90
16485;DHT22;8353;47.856;12.344;2022-12-24T16:13:50;11.30;99.90
16485;DHT22;8353;47.856;12.344;2022-12-24T16:16:31;11.30;99.90
16485;DHT22;8353;47.856;12.344;2022-12-24T16:19:03;11.10;99.90
16485;DHT22;8353;47.856;12.344;2022-12-24T16:21:38;11.20;99.90
16485;DHT22;8353;47.856;12.344;2022-12-24T16:24:14;11.10;99.90
16485;DHT22;8353;47.856;12.344;2022-12-24T16:26:46;11.10;99.90
16485;DHT22;8353;47.856;12.344;2022-12-24T16:29:18;11.20;99.90
16485;DHT22;8353;47.856;12.344;2022-12-24T16:31:50;11.10;99.90